Ceylon, MN (56121)

4:16 AM CST on December 06, 2016 (GMT -0600)
Estherville Municipal | | Change Station
Active Advisory: Wind Advisory

Elev 1316 ft 43.40 °N, 94.75 °W | Updated 24 minutes ago

Mostly Cloudy
Mostly Cloudy
23 °F
Feels Like 7 °F
N
24
Wind Variable Wind from West

Today
High -- | Low -- °F
--% Chance of Precip.
Yesterday
High -- | Low -- °F
Precip. -- in
Pressure 29.86 in
Visibility 10.0 miles
Clouds Mostly Cloudy 10000 ft
Windchill 7 °F
Dew Point 16 °F
Humidity 74%
Rainfall 0.00 in
Snow Depth Not available.
7:37 AM 4:42 PM
Waxing Crescent, 40% visible
METAR KEST 060952Z AUTO 28021KT 10SM BKN100 M05/M09 A2981 RMK AO2 PK WND 28030/0933 SLP109 T10501089
Pressure 29.86 in
Visibility 10.0 miles
Clouds Mostly Cloudy 10000 ft
Windchill 7 °F
Dew Point 16 °F
Humidity 74%
Rainfall 0.00 in
Snow Depth Not available.
7:37 AM 4:42 PM
Waxing Crescent, 40% visible
METAR KEST 060952Z AUTO 28021KT 10SM BKN100 M05/M09 A2981 RMK AO2 PK WND 28030/0933 SLP109 T10501089

10-Day Weather Forecast

Almanac

Astronomy

Dec. 06, 2016 Rise Set
Actual Time
Civil Twilight
Nautical Twilight
Astronomical Twilight
Moon
Length of Visible Light
Length of Day
Tomorrow will be .
, % of the Moon is Illuminated

Today's Extremes

State Highs State Lows

Community

WunderPhotos

Upload Photos

1,955,935 photos uploaded!

WunderBlog® & News

Nearby

Air Quality

  Air Quality AQ Index Pollutant
Not available.

Snow Depth

Station Depth Elevation

Earthquake Activity

City Distance Mag. Time & Date
Minimum magnitude displayed is 2.5.

Coastal Water Temperatures

Place Temperature

Stations

Nearby Weather Stations

Station Location Temp. Windchill Dew Point Humidity Wind Precip. Elev Updated Type
                   

Watches & Warnings

Wind Advisory
Issued: 3:41 AM CST Dec. 6, 2016 – National Weather Service

... Wind Advisory in effect from 9 am this morning to 9 PM CST
this evening...

The National Weather Service in Twin Cities/Chanhassen has issued
a Wind Advisory... which is in effect from 9 am this morning to
9 PM CST this evening.

* Timing... 9 am this morning through 9 PM this evening.

* Winds... west 25 to 35 mph with gusts to 45 mph.

* Impacts... drivers of light weight or high profile vehicles may
experience control problems. Loose objects like garbage cans
and lawn furniture are likely to blow around. Weakened or broken
branches on trees may come down.

Precautionary/preparedness actions...

A Wind Advisory means that winds of 35 mph are expected. Winds
this strong can make driving difficult... especially for high
profile vehicles. Use extra caution.